NCAR-RAP Real-Time Weather Data

Output produced by METARs form (10 April 2020  07:24 UTC)
found at http://weather.rap.ucar.edu/surface/
 
KHJO 100653Z AUTO 05003KT 10SM CLR 08/07 A3007 RMK AO2 SLP183 T00780067
KHJO 100553Z AUTO 00000KT 10SM CLR 08/07 A3006 RMK AO2 SLP182 T00780072 10161 20078 50001
KHJO 100453Z AUTO 23004KT 10SM CLR 09/08 A3007 RMK AO2 SLP184 T00940083
KHJO 100353Z AUTO 17004KT 10SM CLR 10/08 A3007 RMK AO2 SLP183 T01000083
KHJO 100253Z AUTO 19003KT 10SM FEW046 12/09 A3006 RMK AO2 SLP181 T01170094 53008
KHJO 100153Z AUTO 18004KT 10SM BKN032 OVC044 14/09 A3005 RMK AO2 SLP178 T01440094
KHJO 100053Z AUTO 18007KT 10SM BKN044 16/09 A3004 RMK AO2 SLP173 T01610089
KHJO 092353Z AUTO 19007KT 10SM FEW034 16/08 A3004 RMK AO2 SLP173 T01560078 10161 20122 56016
KHJO 092253Z AUTO 15009KT 10SM BKN033 OVC045 16/09 A3005 RMK AO2 SLP178 T01610089
KHJO 092153Z AUTO 15009KT 10SM FEW027 BKN036 BKN042 15/09 A3006 RMK AO2 SLP181 T01500089
KHJO 092130Z AUTO 15009KT 10SM SCT027 OVC037 14/09 A3007 RMK AO2 T01390089
KHJO 092115Z AUTO 16010KT 10SM BKN025 OVC034 14/09 A3008 RMK AO2 T01390089
KHJO 092053Z AUTO 15009KT 10SM OVC033 13/09 A3008 RMK AO2 SLP188 T01330094 58010
KHJO 092013Z AUTO 14008KT 10SM FEW020 BKN033 OVC040 12/09 A3009 RMK AO2 T01220094
KHJO 091953Z AUTO 15011KT 10SM SCT019 BKN026 OVC032 13/09 A3009 RMK AO2 SLP191 T01280094
KHJO 091853Z AUTO 15008KT 10SM SCT018 OVC024 13/09 A3011 RMK AO2 SLP196 T01280094
KHJO 091834Z AUTO 16008KT 10SM BKN017 BKN050 13/09 A3011 RMK AO2 T01280089
KHJO 091804Z AUTO 17009KT 10SM SCT013 BKN050 13/11 A3011 RMK AO2 T01330106
KHJO 091753Z AUTO 15010KT 10SM BKN013 OVC050 12/09 A3011 RMK AO2 SLP198 60016 T01220094 10122 20089 50006
KHJO 091742Z AUTO 15009KT 10SM SCT013 OVC050 12/09 A3011 RMK AO2 T01170089
KHJO 091710Z AUTO 16009KT 10SM BKN010 OVC050 11/09 A3012 RMK AO2 T01060089
KHJO 091653Z AUTO 16008KT 10SM SCT008 BKN050 OVC070 11/09 A3012 RMK AO2 RAE53 SLP199 P0001 T01060089
KHJO 091632Z AUTO 17008KT 10SM -RA BKN008 OVC065 11/09 A3010 RMK AO2 P0001 T01060089
KHJO 091612Z AUTO 15005KT 10SM -RA SCT007 OVC070 10/09 A3010 RMK AO2 P0000 T01000089
KHJO 091553Z AUTO 14005KT 10SM -RA OVC075 09/08 A3010 RMK AO2 SLP194 P0002 T00940083
KHJO 091453Z AUTO 16005KT 10SM -RA OVC060 09/08 A3009 RMK AO2 SLP192 P0003 60013 T00890083 53017
KHJO 091353Z AUTO 14007KT 10SM -RA FEW048 OVC060 09/08 A3007 RMK AO2 SLP186 P0004 T00890083
KHJO 091253Z AUTO 14006KT 9SM -RA SCT043 OVC050 09/08 A3005 RMK AO2 SLP178 P0006 T00890083
KHJO 091153Z AUTO 15010KT 8SM -RA SCT010 BKN033 OVC045 09/08 A3004 RMK AO2 SLP175 P0003 60031 70032 T00890083 10100 20089 53002
KHJO 091150Z AUTO 16010KT 8SM -RA SCT010 BKN033 OVC045 09/08 A3004 RMK AO2 P0002
KHJO 091137Z AUTO 15007KT 10SM -RA BKN008 BKN015 OVC050 09/08 A3004 RMK AO2 P0002 T00890083
KHJO 091129Z AUTO 15009KT 9SM -RA BKN010 OVC037 09/08 A3004 RMK AO2 P0001 T00890083
KHJO 091120Z AUTO 15011KT 9SM -RA BKN008 BKN035 OVC045 09/08 A3004 RMK AO2 P0001 T00890083
KHJO 091053Z AUTO 15011KT 9SM -RA BKN011 OVC027 09/08 A3003 RMK AO2 CIG 007V015 SLP172 P0005 T00890083
KHJO 091051Z AUTO 15011KT 9SM -RA BKN011 OVC027 09/08 A3003 RMK AO2 P0005